OPKC/KHI METAR and TAF weather

Enter ICAO airport designator
Station Type Date Time Source
OPKC METAR 2020/02/25 12:55 UTC NOAA

OPKC 251255Z 21010KT 6000 NSC 27/15 Q1012 NOSIG


Station Type Date Time Source
OPKC Decoded METAR 2020/02/25 12:55 UTC NOAA

Karachi Airport, Pakistan (OPKC) 24-54N 067-08E 22M
Feb 25, 2020 - 07:55 AM EST / 2020.02.25 1255 UTC
Wind: from the SSW (210 degrees) at 12 MPH (10 KT):0
Visibility: 3 mile(s):0
Temperature: 80 F (27 C)
Dew Point: 59 F (15 C)
Relative Humidity: 47%
Pressure (altimeter): 29.88 in. Hg (1012 hPa)
ob: OPKC 251255Z 21010KT 6000 NSC 27/15 Q1012 NOSIG
cycle: 13

Station Type Date Time Source
OPKC TAF 2020/02/25 12:36 UTC NOAA

TAF OPKC 251000Z 2512/2618 25008G18KT 6000 NSC
BECMG 2518/2520 30010KT 5000 HZ NSC
TEMPO 2600/2605 02007KT 3000 FU NSC
FM260500 26007G17KT 6000 NSC

Example: see airport list